Lethbridge County Airport
CYQL : now visible

Airfield :











YOU CAN JOIN US ON...

 
LOGIN :

Register | Disclaimer

   EN    FR    IT 

 









Legend :    VFR   Marginal VFR   IFR   Intensive IFR   Very Intensive IFR
Visi :
Ceiling :
>= 8 km
>= 3000ft
5 to 8 km
1000 to 3000 ft
1500m to 5 km
500 to 1000 ft
800 to 1500m
200 to 500 ft
< 800m
< 200 ft
Symbols :   Thunderstorms  Fog  Heavy snow  Heavy precipitations  Wind > 20 kt







- Airport Elevation : 3047 ft
- IATA code : YQL


CYQL - Lethbridge County

CURRENT METAR :
  • 200800Z AUTO 09003KT 9SM CLR 00/M02 A3000 RMK SLP183

EXPIRED METARs :
  • 200700Z AUTO 12004KT 9SM OVC070 00/M01 A3001 RMK SLP188
  • 200600Z AUTO 14007KT 9SM FEW070 02/M00 A3001 RMK SLP188

TAF TAF CYQL
Valid from the 20 at 06:00 until the 20 at 18:00 UTC


200542Z 2006/2018 14008KT P6SM SCT060
FM201000 VRB03KT P6SM FEW030
FM201600 12012KT P6SM BKN050 RMK FCST BASED ON AUTO OBS. NXT FCST BY 201200Z
CZEG FIR / North America



MET'MAP, your aeronautical weather chart ! - Copyright ORBIFLY December 2007 - Disclaimer

ORBIFLY MET'MAP TEAM :

Programming & Development : Alexandra Zaïnal
Concept & Development : Baudouin d'Aumeries
Co-Development & Prog : Marc-Olivier Méhu
Technical & hardware support : Manuel Goepfert

Contact : metmap@orbifly.com




SOURCES & CREDITS :

   NOAA       Earth
Advisory